Time;durP1;ratioP1;P1;durP2;ratioP2;P2;SDS_P1;SDS_P2;PMS_P1;PMS_P2;Temp;Humidity;BMP_temperature;BMP_pressure;BME280_temperature;BME280_humidity;BME280_pressure;Samples;Min_cycle;Max_cycle;Signal;HPM_P1;HPM_P2
2022/02/06 00:00:36;;;;;;;7.85;4.53;;;;;;;4.50;100.00;100395.31;4961184;28;20035;-75
2022/02/06 00:03:02;;;;;;;8.85;4.88;;;;;;;4.48;100.00;100387.66;4956520;28;20054;-75
2022/02/06 00:05:27;;;;;;;6.85;4.72;;;;;;;4.46;100.00;100367.91;4952776;28;20110;-76
2022/02/06 00:07:53;;;;;;;7.43;4.18;;;;;;;4.47;100.00;100374.78;4950148;28;20054;-75
2022/02/06 00:10:19;;;;;;;5.93;4.10;;;;;;;4.49;100.00;100373.72;4952261;28;20106;-75
2022/02/06 00:12:46;;;;;;;11.70;4.75;;;;;;;4.48;100.00;100366.03;4933085;29;20130;-75
2022/02/06 00:15:12;;;;;;;8.57;4.30;;;;;;;4.56;100.00;100374.09;4971194;28;20041;-76
2022/02/06 00:17:38;;;;;;;7.88;4.68;;;;;;;4.49;100.00;100367.69;4941616;29;20043;-75
2022/02/06 00:20:06;;;;;;;5.90;4.15;;;;;;;4.53;100.00;100366.50;4954959;29;20134;-74
2022/02/06 00:22:49;;;;;;;7.30;4.13;;;;;;;4.47;100.00;100359.19;4954229;29;20108;-75
2022/02/06 00:25:47;;;;;;;9.02;3.92;;;;;;;4.56;100.00;100357.66;4954724;29;20027;-75
2022/02/06 00:28:18;;;;;;;6.50;3.95;;;;;;;4.52;100.00;100338.91;4955013;28;20062;-75
2022/02/06 00:30:57;;;;;;;7.47;3.88;;;;;;;4.52;100.00;100344.09;4952470;28;20104;-74
2022/02/06 00:41:29;;;;;;;7.85;4.00;;;;;;;4.64;100.00;100313.75;4934170;29;20042;-75
2022/02/06 00:43:55;;;;;;;10.15;4.15;;;;;;;4.61;100.00;100314.78;4936367;29;20161;-75
2022/02/06 00:46:22;;;;;;;7.22;3.70;;;;;;;4.65;100.00;100318.84;4937729;28;20107;-74
2022/02/06 00:48:51;;;;;;;6.65;3.75;;;;;;;4.63;100.00;100299.94;4951848;28;20077;-75
2022/02/06 00:51:30;;;;;;;6.68;4.10;;;;;;;4.64;100.00;100311.97;4953106;28;20135;-75
2022/02/06 00:53:55;;;;;;;8.20;4.00;;;;;;;4.61;100.00;100295.78;4958985;28;20042;-75
2022/02/06 00:56:21;;;;;;;5.40;4.20;;;;;;;4.62;100.00;100287.88;4951713;29;20051;-74
2022/02/06 00:58:47;;;;;;;6.00;4.32;;;;;;;4.70;100.00;100281.28;4941414;29;20039;-75
2022/02/06 01:01:13;;;;;;;5.28;4.25;;;;;;;4.67;100.00;100274.53;4955112;28;20040;-75
2022/02/06 01:03:39;;;;;;;5.82;3.60;;;;;;;4.64;100.00;100272.19;4943285;29;20054;-75
2022/02/06 01:06:05;;;;;;;5.60;3.80;;;;;;;4.73;100.00;100268.88;4945152;28;20047;-75
2022/02/06 01:08:31;;;;;;;9.65;3.72;;;;;;;4.79;100.00;100265.78;4941556;29;20075;-75
2022/02/06 01:10:56;;;;;;;4.63;3.53;;;;;;;4.75;100.00;100276.56;4954076;28;20155;-75
2022/02/06 01:15:54;;;;;;;10.25;3.80;;;;;;;4.74;100.00;100254.91;4953180;28;20047;-75
2022/02/06 01:18:33;;;;;;;8.13;3.70;;;;;;;4.74;100.00;100244.53;4970145;28;20035;-75
2022/02/06 01:21:01;;;;;;;5.80;3.47;;;;;;;4.80;100.00;100240.63;4974092;28;20039;-74
2022/02/06 01:23:42;;;;;;;5.35;3.92;;;;;;;4.67;100.00;100225.16;4913775;29;20082;-75
2022/02/06 01:26:18;;;;;;;7.13;3.72;;;;;;;4.74;100.00;100220.31;4938208;29;20730;-75
2022/02/06 01:28:50;;;;;;;8.77;4.07;;;;;;;4.72;100.00;100210.03;4969869;28;20038;-75
2022/02/06 01:33:49;;;;;;;5.13;3.55;;;;;;;4.75;100.00;100190.81;4957097;28;21148;-75
2022/02/06 01:36:27;;;;;;;5.90;3.65;;;;;;;4.79;100.00;100195.63;4952344;28;20027;-75
2022/02/06 01:41:28;;;;;;;7.13;4.03;;;;;;;4.85;100.00;100181.31;4953615;28;20054;-75
2022/02/06 01:44:06;;;;;;;5.45;3.50;;;;;;;4.82;100.00;100165.97;4956051;28;20035;-76
2022/02/06 02:01:21;;;;;;;5.07;3.20;;;;;;;4.84;100.00;100143.28;4954470;28;20493;-75
2022/02/06 02:03:23;;;;;;;4.45;3.40;;;;;;;4.88;100.00;100129.09;4949426;28;20050;-76
2022/02/06 02:06:13;;;;;;;5.80;3.30;;;;;;;4.92;100.00;100129.69;4951164;29;20096;-76
2022/02/06 02:09:14;;;;;;;5.72;3.33;;;;;;;4.98;100.00;100126.56;4953573;28;20035;-75
2022/02/06 02:11:54;;;;;;;5.40;3.20;;;;;;;4.97;100.00;100122.31;4945005;28;20461;-75
2022/02/06 02:20:10;;;;;;;4.68;3.40;;;;;;;4.92;100.00;100101.09;4951532;28;20127;-75
2022/02/06 02:28:11;;;;;;;4.50;3.13;;;;;;;4.98;100.00;100072.00;4952230;28;20042;-75
2022/02/06 02:30:59;;;;;;;3.97;3.10;;;;;;;4.88;100.00;100070.16;4924900;29;20545;-75
2022/02/06 02:33:47;;;;;;;5.50;3.10;;;;;;;4.93;100.00;100081.94;4936017;29;20051;-75
2022/02/06 02:47:17;;;;;;;5.90;3.03;;;;;;;4.99;100.00;100048.47;4955553;28;20039;-75
2022/02/06 02:50:00;;;;;;;4.78;2.78;;;;;;;5.01;100.00;100030.13;4960559;28;20584;-74
2022/02/06 02:52:54;;;;;;;5.72;3.40;;;;;;;5.00;100.00;100026.72;4957258;29;20034;-75
2022/02/06 02:55:33;;;;;;;5.43;2.88;;;;;;;5.07;100.00;100034.84;4958112;29;20043;-74
2022/02/06 02:58:17;;;;;;;3.80;2.72;;;;;;;5.08;100.00;100026.06;4957945;28;20050;-75
2022/02/06 03:03:19;;;;;;;6.07;2.95;;;;;;;5.09;100.00;100011.31;4992553;28;20047;-74
2022/02/06 03:05:47;;;;;;;4.35;2.58;;;;;;;5.11;100.00;100002.44;4970650;28;20050;-73
2022/02/06 03:08:13;;;;;;;5.20;2.72;;;;;;;5.16;100.00;100015.88;4971957;28;20030;-74
2022/02/06 03:10:39;;;;;;;3.25;2.90;;;;;;;5.18;100.00;100003.56;4974074;28;20023;-74
2022/02/06 03:13:09;;;;;;;4.88;2.95;;;;;;;5.19;100.00;100006.97;4969046;28;20046;-74
2022/02/06 03:18:15;;;;;;;2.67;2.45;;;;;;;5.19;100.00;99988.78;4972740;28;20038;-73
2022/02/06 03:20:40;;;;;;;2.70;2.47;;;;;;;5.25;100.00;99983.06;4970149;28;20498;-73
2022/02/06 03:23:07;;;;;;;3.20;2.25;;;;;;;5.21;100.00;99974.69;4948634;28;20038;-75
2022/02/06 03:25:36;;;;;;;6.68;2.80;;;;;;;5.25;100.00;99970.06;4971293;28;20045;-74
2022/02/06 03:28:02;;;;;;;7.20;3.10;;;;;;;5.23;100.00;99975.38;4972766;28;20451;-74
2022/02/06 03:30:30;;;;;;;6.82;2.80;;;;;;;5.30;100.00;99967.06;4960325;28;20027;-74
2022/02/06 03:32:56;;;;;;;3.70;2.38;;;;;;;5.30;100.00;99962.69;4971831;28;20042;-75
2022/02/06 03:35:23;;;;;;;5.80;2.80;;;;;;;5.29;100.00;99957.63;4984814;28;20944;-74
2022/02/06 03:37:49;;;;;;;4.22;2.55;;;;;;;5.34;100.00;99945.06;4957289;28;20073;-75
2022/02/06 03:40:25;;;;;;;3.00;2.30;;;;;;;5.35;100.00;99947.53;4956567;28;20062;-74
2022/02/06 03:45:33;;;;;;;3.22;2.13;;;;;;;5.40;100.00;99944.50;4960115;28;20037;-74
2022/02/06 03:48:11;;;;;;;4.55;2.10;;;;;;;5.43;100.00;99949.47;4932163;28;20043;-75
2022/02/06 03:50:37;;;;;;;3.78;2.05;;;;;;;5.43;100.00;99950.28;4978534;28;20062;-74
2022/02/06 03:53:02;;;;;;;3.83;1.92;;;;;;;5.36;100.00;99950.94;4950384;28;20043;-74
2022/02/06 03:55:30;;;;;;;3.08;2.00;;;;;;;5.43;100.00;99936.44;4962198;28;20063;-75
2022/02/06 03:57:56;;;;;;;3.97;2.08;;;;;;;5.36;100.00;99927.53;4954602;28;20522;-76
2022/02/06 04:00:26;;;;;;;3.85;2.40;;;;;;;5.36;100.00;99937.94;4994150;28;20118;-74
2022/02/06 04:02:52;;;;;;;6.38;2.03;;;;;;;5.37;100.00;99922.19;4966863;28;20512;-73
2022/02/06 04:05:18;;;;;;;4.68;1.92;;;;;;;5.41;100.00;99918.38;4988853;28;20446;-75
2022/02/06 04:07:45;;;;;;;2.95;1.58;;;;;;;5.40;100.00;99913.31;4969942;28;20055;-75
2022/02/06 04:10:13;;;;;;;2.53;1.67;;;;;;;5.40;100.00;99902.91;4962370;28;20027;-74
2022/02/06 04:12:41;;;;;;;3.95;2.03;;;;;;;5.35;100.00;99900.72;4955381;28;20090;-75
2022/02/06 04:15:14;;;;;;;2.85;1.52;;;;;;;5.36;100.00;99902.34;4953977;28;20031;-75
2022/02/06 04:17:50;;;;;;;;;;;;;;;5.46;100.00;99892.78;4960703;28;20049;-75
2022/02/06 04:20:16;;;;;;;1.85;1.52;;;;;;;5.44;100.00;99889.50;4940368;28;19914;-75
2022/02/06 04:22:44;;;;;;;2.78;1.63;;;;;;;5.48;100.00;99887.44;4939823;29;20046;-76
2022/02/06 04:25:10;;;;;;;1.80;1.35;;;;;;;5.47;100.00;99885.81;4979111;28;20114;-74
2022/02/06 04:27:36;;;;;;;3.08;1.55;;;;;;;5.48;100.00;99887.44;4954755;28;20150;-76
2022/02/06 04:30:02;;;;;;;1.70;1.48;;;;;;;5.48;100.00;99877.03;4968226;28;20035;-75
2022/02/06 04:32:28;;;;;;;1.67;1.58;;;;;;;5.50;100.00;99880.34;4970159;28;20764;-75
2022/02/06 04:34:55;;;;;;;3.50;1.42;;;;;;;5.49;100.00;99881.28;4962942;28;20075;-75
2022/02/06 04:37:31;;;;;;;2.55;1.92;;;;;;;5.56;100.00;99866.78;4970960;28;20035;-75
2022/02/06 04:40:14;;;;;;;4.88;1.88;;;;;;;5.60;100.00;99865.56;5001527;28;20108;-75
2022/02/06 05:10:53;;;;;;;2.75;1.60;;;;;;;5.57;100.00;99824.19;4971509;28;20128;-75
2022/02/06 05:17:52;;;;;;;4.25;1.50;;;;;;;5.80;100.00;99803.94;4951123;28;20150;-75
2022/02/06 05:30:21;;;;;;;1.67;1.30;;;;;;;5.81;100.00;99805.56;4966371;28;20050;-75
2022/02/06 05:32:59;;;;;;;3.45;1.70;;;;;;;5.72;100.00;99796.00;4993533;28;20039;-75
2022/02/06 05:35:27;;;;;;;1.75;1.60;;;;;;;5.85;100.00;99790.50;4964510;28;20030;-75
2022/02/06 05:37:53;;;;;;;5.28;1.63;;;;;;;5.90;100.00;99787.50;4972684;28;20483;-75
2022/02/06 05:40:18;;;;;;;4.22;1.55;;;;;;;5.93;100.00;99798.41;4963832;28;20070;-75
2022/02/06 05:42:44;;;;;;;3.75;1.30;;;;;;;5.87;100.00;99785.97;4967852;28;20495;-75
2022/02/06 05:45:11;;;;;;;2.33;1.55;;;;;;;5.89;100.00;99775.44;4956540;28;20035;-75
2022/02/06 05:47:37;;;;;;;1.33;1.23;;;;;;;5.89;100.00;99783.25;4967995;28;20049;-75
2022/02/06 05:50:04;;;;;;;2.08;1.20;;;;;;;5.92;100.00;99789.00;4966902;28;20162;-75
2022/02/06 05:52:32;;;;;;;2.17;1.20;;;;;;;5.97;100.00;99780.78;4989001;28;20047;-74
2022/02/06 05:54:58;;;;;;;2.53;1.20;;;;;;;6.02;100.00;99797.63;4966437;28;20039;-75
2022/02/06 05:57:24;;;;;;;2.05;1.20;;;;;;;5.99;100.00;99794.47;4961760;28;20138;-75
2022/02/06 05:59:50;;;;;;;2.35;1.00;;;;;;;5.98;100.00;99796.25;4993043;28;20098;-77
2022/02/06 06:02:17;;;;;;;2.60;1.20;;;;;;;5.96;100.00;99799.97;4965365;28;20046;-75
2022/02/06 06:04:43;;;;;;;1.45;1.05;;;;;;;5.93;100.00;99797.59;4965194;28;20050;-75
2022/02/06 06:07:09;;;;;;;1.42;1.20;;;;;;;5.91;100.00;99782.13;4966479;28;20069;-75
2022/02/06 06:09:34;;;;;;;1.15;1.08;;;;;;;5.95;100.00;99791.34;4969688;28;20113;-75
2022/02/06 06:12:00;;;;;;;1.50;1.02;;;;;;;5.88;100.00;99792.84;4967646;28;20503;-74
2022/02/06 06:14:29;;;;;;;3.42;1.20;;;;;;;5.91;100.00;99782.13;4966063;28;20189;-75
2022/02/06 06:16:58;;;;;;;1.23;1.13;;;;;;;5.99;100.00;99776.25;4954411;28;20133;-76
2022/02/06 06:19:24;;;;;;;1.70;1.30;;;;;;;6.02;100.00;99768.97;4981342;28;20822;-74
2022/02/06 06:21:55;;;;;;;3.88;1.20;;;;;;;6.01;100.00;99758.72;4977797;28;20033;-75
2022/02/06 06:24:23;;;;;;;3.13;1.20;;;;;;;6.00;100.00;99767.50;4990426;28;20626;-74
2022/02/06 06:26:49;;;;;;;2.50;1.02;;;;;;;5.96;100.00;99758.31;4955577;28;20535;-75
2022/02/06 06:29:15;;;;;;;1.45;0.77;;;;;;;6.00;100.00;99754.47;4951430;28;20038;-76
2022/02/06 06:31:41;;;;;;;3.67;1.20;;;;;;;6.02;100.00;99757.75;4975423;28;20062;-74
2022/02/06 06:34:06;;;;;;;1.58;1.02;;;;;;;6.02;100.00;99765.56;4983014;28;20112;-75
2022/02/06 06:36:34;;;;;;;2.55;1.35;;;;;;;5.97;100.00;99759.94;4979036;28;20138;-75
2022/02/06 06:39:00;;;;;;;3.08;1.35;;;;;;;5.88;100.00;99764.22;4962272;28;20070;-74
2022/02/06 06:41:26;;;;;;;2.85;1.23;;;;;;;5.98;100.00;99759.00;4945045;28;20484;-75
2022/02/06 06:43:53;;;;;;;3.25;1.20;;;;;;;5.96;100.00;99768.75;4961555;28;20062;-74
2022/02/06 06:46:19;;;;;;;2.40;1.10;;;;;;;5.96;100.00;99756.53;4962915;28;20034;-75
2022/02/06 06:48:45;;;;;;;1.98;0.90;;;;;;;5.89;100.00;99755.41;4938534;28;20049;-74
2022/02/06 06:51:11;;;;;;;1.52;1.42;;;;;;;5.89;100.00;99744.19;4970758;28;20088;-76
2022/02/06 06:53:40;;;;;;;2.63;2.08;;;;;;;5.99;100.00;99739.81;4962156;28;20388;-75
2022/02/06 06:56:13;;;;;;;4.18;1.95;;;;;;;5.94;100.00;99737.59;4960712;28;20504;-75
2022/02/06 06:58:47;;;;;;;3.63;1.60;;;;;;;5.91;100.00;99729.25;4967881;28;20035;-75
2022/02/06 07:04:00;;;;;;;4.35;1.45;;;;;;;5.96;100.00;99724.50;4997880;28;20062;-75
2022/02/06 07:06:26;;;;;;;2.40;1.50;;;;;;;5.95;100.00;99728.88;4963995;28;20031;-76
2022/02/06 07:08:54;;;;;;;3.35;1.58;;;;;;;5.81;100.00;99724.09;4952576;28;20066;-76
2022/02/06 07:11:19;;;;;;;2.70;1.83;;;;;;;5.65;100.00;99724.66;4964212;28;20089;-75
2022/02/06 07:13:45;;;;;;;9.95;2.10;;;;;;;5.56;100.00;99733.31;4979843;28;20047;-75
2022/02/06 07:16:11;;;;;;;4.95;2.50;;;;;;;5.57;100.00;99743.56;4951551;28;20061;-75
2022/02/06 07:18:36;;;;;;;7.80;3.25;;;;;;;5.54;100.00;99746.44;4950757;28;20039;-75
2022/02/06 07:21:02;;;;;;;5.95;2.72;;;;;;;5.67;100.00;99738.38;4950281;28;20093;-77
2022/02/06 07:23:27;;;;;;;3.60;1.55;;;;;;;5.61;100.00;99749.31;4961642;28;20070;-76
2022/02/06 07:25:58;;;;;;;5.15;1.40;;;;;;;5.64;100.00;99749.84;4970085;28;20039;-75
2022/02/06 07:28:24;;;;;;;5.13;1.55;;;;;;;5.54;100.00;99753.41;4953057;28;20538;-76
2022/02/06 07:30:49;;;;;;;5.90;1.27;;;;;;;5.53;100.00;99746.59;4979265;28;20035;-76
2022/02/06 07:33:19;;;;;;;4.22;1.05;;;;;;;5.45;100.00;99739.47;4954129;28;20046;-76
2022/02/06 07:35:46;;;;;;;8.88;0.93;;;;;;;5.38;100.00;99743.56;4971265;28;20030;-76
2022/02/06 07:38:14;;;;;;;3.45;0.70;;;;;;;5.29;100.00;99728.78;4960538;28;20137;-75
2022/02/06 07:40:41;;;;;;;2.95;0.60;;;;;;;5.43;100.00;99741.41;4977833;28;20077;-74
2022/02/06 07:43:08;;;;;;;1.85;0.50;;;;;;;5.37;100.00;99739.31;4955806;28;20049;-76
2022/02/06 07:45:38;;;;;;;4.55;0.77;;;;;;;5.41;100.00;99743.31;4976923;28;20559;-75
2022/02/06 07:48:05;;;;;;;2.90;0.63;;;;;;;5.22;100.00;99739.75;4948599;28;20039;-76
2022/02/06 07:50:31;;;;;;;5.15;0.98;;;;;;;5.28;100.00;99745.38;4963524;28;20065;-77
2022/02/06 07:52:57;;;;;;;1.15;0.60;;;;;;;5.30;100.00;99746.06;4956719;28;20517;-74
2022/02/06 07:55:22;;;;;;;3.78;0.88;;;;;;;5.23;100.00;99741.38;4986539;28;20114;-73
2022/02/06 07:57:48;;;;;;;2.25;0.55;;;;;;;5.24;100.00;99734.41;4992128;28;20035;-78
2022/02/06 08:00:15;;;;;;;3.58;0.50;;;;;;;5.32;100.00;99738.94;4967827;28;20477;-76
2022/02/06 08:02:41;;;;;;;2.70;0.40;;;;;;;5.29;100.00;99734.81;4951902;28;20121;-77
2022/02/06 08:05:07;;;;;;;6.88;0.60;;;;;;;5.25;100.00;99721.28;4974869;28;20042;-74
2022/02/06 08:07:33;;;;;;;0.80;0.30;;;;;;;5.24;100.00;99711.84;4978395;28;20039;-74
2022/02/06 08:10:01;;;;;;;2.75;0.50;;;;;;;5.26;100.00;99709.09;4971112;28;20170;-73
2022/02/06 08:12:31;;;;;;;1.95;0.40;;;;;;;5.17;100.00;99705.53;4993215;28;20543;-73
2022/02/06 08:15:00;;;;;;;1.95;0.50;;;;;;;5.15;100.00;99698.84;4989279;28;20045;-73
2022/02/06 08:17:28;;;;;;;4.47;0.40;;;;;;;5.16;100.00;99696.09;4986546;28;20039;-74
2022/02/06 08:19:55;;;;;;;3.90;0.40;;;;;;;5.20;100.00;99683.66;4964681;28;20412;-74
2022/02/06 08:22:22;;;;;;;1.65;0.50;;;;;;;5.23;100.00;99685.97;4953336;28;20126;-74
2022/02/06 08:24:49;;;;;;;1.92;0.30;;;;;;;5.16;100.00;99679.66;4964308;28;20035;-73
2022/02/06 08:27:22;;;;;;;2.20;0.50;;;;;;;5.19;100.00;99675.00;4969651;28;20038;-74
2022/02/06 08:29:49;;;;;;;1.75;0.30;;;;;;;5.15;100.00;99659.84;4956856;28;20047;-74
2022/02/06 08:32:18;;;;;;;0.77;0.28;;;;;;;5.14;100.00;99659.03;4945104;28;20097;-74
2022/02/06 08:34:44;;;;;;;4.40;0.47;;;;;;;5.25;100.00;99647.66;4961855;28;20035;-76
2022/02/06 08:37:10;;;;;;;1.65;0.57;;;;;;;5.25;100.00;99651.09;4991045;28;20088;-76
2022/02/06 08:39:38;;;;;;;4.88;0.70;;;;;;;5.30;100.00;99650.66;4967182;28;20054;-75
2022/02/06 08:42:06;;;;;;;3.47;0.80;;;;;;;5.26;100.00;99644.91;4963614;28;20819;-75
2022/02/06 08:44:33;;;;;;;1.92;0.70;;;;;;;5.25;100.00;99638.09;4987400;28;20050;-75
2022/02/06 08:46:59;;;;;;;3.63;0.77;;;;;;;5.28;100.00;99633.56;4963426;28;20126;-76
2022/02/06 08:49:25;;;;;;;0.90;0.50;;;;;;;5.34;100.00;99625.19;4963254;28;20118;-76
2022/02/06 08:51:52;;;;;;;1.33;0.45;;;;;;;5.33;100.00;99613.97;4988804;28;20757;-75
2022/02/06 08:54:18;;;;;;;1.45;0.30;;;;;;;5.35;100.00;99612.06;4968517;28;20079;-75
2022/02/06 08:56:43;;;;;;;1.70;0.40;;;;;;;5.38;100.00;99593.56;4970088;28;20031;-75
2022/02/06 08:59:10;;;;;;;1.27;0.52;;;;;;;5.40;100.00;99601.22;4958067;28;20770;-75
2022/02/06 09:01:37;;;;;;;2.95;0.30;;;;;;;5.39;100.00;99594.41;4975435;28;20039;-75
2022/02/06 09:04:04;;;;;;;2.25;0.20;;;;;;;5.38;100.00;99596.16;4973209;28;20089;-75
2022/02/06 09:06:31;;;;;;;2.70;0.43;;;;;;;5.37;100.00;99588.50;4954830;28;20039;-75
2022/02/06 09:08:59;;;;;;;4.18;0.60;;;;;;;5.38;100.00;99579.75;4966391;28;20097;-75
2022/02/06 09:11:28;;;;;;;3.85;0.50;;;;;;;5.40;100.00;99573.44;4964998;28;20408;-75
2022/02/06 09:13:55;;;;;;;3.75;0.60;;;;;;;5.43;100.00;99574.94;4960831;28;20377;-75
2022/02/06 09:16:23;;;;;;;1.83;0.60;;;;;;;5.45;100.00;99584.25;4963640;28;20046;-75
2022/02/06 09:18:50;;;;;;;1.55;0.68;;;;;;;5.40;100.00;99583.84;4955095;28;20424;-75
2022/02/06 09:21:16;;;;;;;1.90;0.60;;;;;;;5.43;100.00;99577.53;4968512;28;20041;-75
2022/02/06 09:23:43;;;;;;;1.42;0.40;;;;;;;5.37;100.00;99567.69;4979496;28;20030;-75
2022/02/06 09:26:08;;;;;;;0.90;0.60;;;;;;;5.38;100.00;99570.16;4967975;28;20035;-75
2022/02/06 09:28:34;;;;;;;1.55;0.68;;;;;;;5.46;100.00;99572.88;4949587;28;20440;-75
2022/02/06 09:31:00;;;;;;;3.20;0.65;;;;;;;5.50;100.00;99572.59;4992653;28;20044;-75
2022/02/06 09:35:52;;;;;;;3.05;0.65;;;;;;;5.59;100.00;99556.94;4961978;28;20039;-75
2022/02/06 09:38:18;;;;;;;2.22;0.60;;;;;;;5.57;100.00;99548.47;4968670;28;20038;-75
2022/02/06 09:40:45;;;;;;;0.85;0.38;;;;;;;5.66;100.00;99528.56;4968598;28;20034;-75
2022/02/06 09:43:13;;;;;;;2.35;0.45;;;;;;;5.64;100.00;99520.91;4962413;28;20062;-76
2022/02/06 09:45:46;;;;;;;2.08;0.30;;;;;;;5.67;100.00;99522.41;4959958;28;20042;-76
2022/02/06 09:48:13;;;;;;;1.63;0.50;;;;;;;5.73;100.00;99511.44;4973520;28;20481;-75
2022/02/06 09:50:42;;;;;;;2.35;0.55;;;;;;;5.73;100.00;99516.63;4974205;28;20517;-75
2022/02/06 09:53:08;;;;;;;0.68;0.38;;;;;;;5.67;100.00;99506.81;4962332;28;20492;-75
2022/02/06 09:55:36;;;;;;;2.35;0.35;;;;;;;5.69;100.00;99504.88;4938497;28;20031;-75
2022/02/06 10:00:44;;;;;;;0.57;0.40;;;;;;;5.62;100.00;99480.41;4980865;28;20027;-76
2022/02/06 10:03:11;;;;;;;1.75;0.38;;;;;;;5.70;100.00;99475.28;4957747;28;20450;-75
2022/02/06 10:05:39;;;;;;;0.50;0.43;;;;;;;5.66;100.00;99472.16;4948334;28;20035;-74
2022/02/06 10:08:12;;;;;;;2.90;0.70;;;;;;;5.60;100.00;99467.53;4937517;28;20047;-75
2022/02/06 10:10:47;;;;;;;1.77;0.60;;;;;;;5.43;100.00;99455.31;4958247;28;20043;-75
2022/02/06 10:13:13;;;;;;;1.08;0.30;;;;;;;5.42;100.00;99457.06;4963319;28;20042;-75
2022/02/06 10:15:39;;;;;;;1.38;0.38;;;;;;;5.43;100.00;99444.91;4968144;28;20026;-76
2022/02/06 10:18:05;;;;;;;1.80;0.47;;;;;;;5.44;100.00;99441.34;4967000;28;20039;-75
2022/02/06 10:20:42;;;;;;;3.50;0.45;;;;;;;5.36;100.00;99441.25;4969443;28;20552;-76
2022/02/06 10:23:20;;;;;;;0.65;0.40;;;;;;;5.26;100.00;99429.13;4955276;28;20057;-75
2022/02/06 10:25:48;;;;;;;2.60;0.52;;;;;;;5.34;100.00;99436.19;4949851;28;20035;-75
2022/02/06 10:28:58;;;;;;;2.67;0.40;;;;;;;5.22;100.00;99421.75;4962008;28;20038;-75
2022/02/06 10:31:07;;;;;;;0.77;0.30;;;;;;;5.32;100.00;99416.50;4955751;28;20042;-75
2022/02/06 10:33:50;;;;;;;1.13;0.40;;;;;;;5.27;100.00;99406.53;4958208;28;20485;-75
2022/02/06 10:36:36;;;;;;;;;;;;;;;5.19;100.00;99398.66;4967916;28;20135;-75
2022/02/06 10:39:04;;;;;;;2.55;0.32;;;;;;;5.18;100.00;99379.63;4952665;28;19921;-75
2022/02/06 10:41:30;;;;;;;1.00;0.30;;;;;;;5.11;100.00;99373.38;4953922;28;20366;-75
2022/02/06 10:44:04;;;;;;;1.60;0.43;;;;;;;5.13;100.00;99358.44;4960517;28;20130;-75
2022/02/06 10:46:43;;;;;;;1.75;0.47;;;;;;;5.17;100.00;99353.78;4962538;28;20027;-75
2022/02/06 10:49:26;;;;;;;1.67;0.40;;;;;;;5.13;100.00;99342.84;4954024;28;20733;-75
2022/02/06 10:52:03;;;;;;;1.77;0.50;;;;;;;5.09;100.00;99341.50;4966860;28;20530;-75
2022/02/06 10:54:29;;;;;;;2.25;0.60;;;;;;;5.06;100.00;99318.41;4952947;28;20039;-75
2022/02/06 10:57:11;;;;;;;3.38;0.63;;;;;;;5.08;100.00;99311.28;4939907;28;20443;-75
2022/02/06 10:59:42;;;;;;;2.58;0.60;;;;;;;5.09;100.00;99301.72;4964798;28;20050;-75
2022/02/06 11:02:22;;;;;;;2.72;0.68;;;;;;;5.10;100.00;99285.94;4953336;28;20128;-75
2022/02/06 11:05:00;;;;;;;1.35;0.75;;;;;;;5.12;100.00;99278.00;4969892;28;20059;-75
2022/02/06 11:07:26;;;;;;;2.95;1.27;;;;;;;5.12;100.00;99267.63;4965386;28;20062;-75
2022/02/06 11:10:06;;;;;;;1.48;1.00;;;;;;;5.15;100.00;99256.94;4980376;28;20049;-75
2022/02/06 11:12:32;;;;;;;5.00;1.65;;;;;;;5.12;100.00;99258.03;4965290;28;20117;-75
2022/02/06 11:15:01;;;;;;;4.20;1.50;;;;;;;5.11;100.00;99237.41;4968710;28;20455;-75
2022/02/06 11:17:30;;;;;;;2.63;1.30;;;;;;;5.03;100.00;99245.94;4956237;28;20484;-75
2022/02/06 11:20:08;;;;;;;3.13;1.00;;;;;;;5.04;100.00;99239.75;4979305;28;20039;-74
2022/02/06 11:22:35;;;;;;;1.83;0.88;;;;;;;5.09;100.00;99232.34;4940861;28;20043;-75
2022/02/06 11:25:04;;;;;;;4.05;0.98;;;;;;;5.19;100.00;99219.28;4968553;28;20477;-74
2022/02/06 11:27:32;;;;;;;2.63;0.98;;;;;;;5.21;100.00;99218.16;4998249;28;20030;-74
2022/02/06 11:29:58;;;;;;;1.83;1.17;;;;;;;5.19;100.00;99216.69;4939553;28;20042;-75
2022/02/06 11:32:28;;;;;;;2.25;1.10;;;;;;;5.11;100.00;99225.22;4968474;28;20463;-75
2022/02/06 11:34:57;;;;;;;3.63;2.00;;;;;;;5.04;100.00;99204.19;4940843;28;20656;-75
2022/02/06 11:46:07;;;;;;;7.03;3.17;;;;;;;5.21;100.00;99162.75;4951515;28;20424;-74
2022/02/06 11:48:34;;;;;;;9.30;4.07;;;;;;;5.24;100.00;99149.47;4959010;28;20071;-73
2022/02/06 11:51:00;;;;;;;14.93;5.22;;;;;;;5.22;100.00;99169.59;4963595;28;20035;-74
2022/02/06 11:53:42;;;;;;;7.78;1.60;;;;;;;4.97;100.00;99153.81;4967903;28;20034;-74
2022/02/06 11:56:35;;;;;;;4.03;1.60;;;;;;;4.92;100.00;99147.44;4957973;28;20046;-75
2022/02/06 11:59:11;;;;;;;;;;;;;;;4.73;100.00;99144.00;4958858;28;20130;-75
2022/02/06 12:01:38;;;;;;;4.00;0.68;;;;;;;4.56;100.00;99152.56;4967538;28;19918;-75
2022/02/06 12:04:06;;;;;;;3.88;0.60;;;;;;;4.50;100.00;99169.56;4946680;28;20039;-76
2022/02/06 12:06:47;;;;;;;1.55;0.40;;;;;;;4.45;100.00;99143.22;4970460;28;20465;-75
2022/02/06 12:09:23;;;;;;;10.48;0.60;;;;;;;4.42;100.00;99151.31;4970149;28;20046;-76
2022/02/06 12:12:04;;;;;;;0.70;0.52;;;;;;;4.49;100.00;99147.97;4953109;28;20047;-75
2022/02/06 12:14:34;;;;;;;5.63;0.65;;;;;;;4.40;100.00;99142.84;4956114;28;20104;-74
2022/02/06 12:17:22;;;;;;;1.52;0.55;;;;;;;4.35;100.00;99143.28;4978817;28;20812;-75
2022/02/06 12:20:03;;;;;;;4.95;0.70;;;;;;;4.31;100.00;99139.34;4961117;28;20031;-76
2022/02/06 12:22:28;;;;;;;5.32;0.68;;;;;;;4.40;100.00;99137.66;4953885;28;20046;-76
2022/02/06 12:25:33;;;;;;;2.40;0.63;;;;;;;4.38;100.00;99134.38;4951182;28;20042;-75
2022/02/06 12:28:31;;;;;;;2.97;1.10;;;;;;;4.38;100.00;99122.22;4999036;28;20027;-76
2022/02/06 12:31:15;;;;;;;3.67;0.80;;;;;;;4.29;100.00;99115.31;4969508;28;20043;-76
2022/02/06 12:33:45;;;;;;;3.25;0.80;;;;;;;4.24;100.00;99118.34;4951138;28;20401;-77
2022/02/06 12:39:26;;;;;;;3.08;0.80;;;;;;;4.09;100.00;99110.22;4969354;28;20035;-76
2022/02/06 12:41:54;;;;;;;4.80;0.80;;;;;;;4.14;100.00;99116.75;4977323;28;20480;-75
2022/02/06 12:44:24;;;;;;;1.73;0.40;;;;;;;3.77;100.00;99115.84;4966380;28;20039;-74
2022/02/06 12:46:50;;;;;;;0.40;0.30;;;;;;;3.80;100.00;99119.91;4971917;28;20456;-75
2022/02/06 12:49:21;;;;;;;1.80;0.60;;;;;;;3.78;100.00;99125.25;4959462;28;20093;-76
2022/02/06 12:51:54;;;;;;;3.40;0.70;;;;;;;3.60;100.00;99126.94;4971433;28;20038;-75
2022/02/06 12:54:22;;;;;;;1.05;0.57;;;;;;;3.54;100.00;99109.38;4963555;28;20031;-76
2022/02/06 12:56:48;;;;;;;4.45;0.50;;;;;;;3.45;100.00;99109.25;4984434;28;20038;-75
2022/02/06 12:59:21;;;;;;;2.60;0.55;;;;;;;3.46;100.00;99099.69;4984362;28;20039;-74
2022/02/06 13:01:48;;;;;;;1.92;0.43;;;;;;;3.41;100.00;99094.94;4957484;28;20065;-77
2022/02/06 13:04:16;;;;;;;4.78;0.40;;;;;;;3.35;100.00;99092.09;4955877;28;20042;-75
2022/02/06 13:06:47;;;;;;;0.70;0.30;;;;;;;3.37;100.00;99083.25;4969527;28;20035;-74
2022/02/06 13:09:26;;;;;;;2.50;0.20;;;;;;;3.31;100.00;99084.63;4960100;28;20096;-74
2022/02/06 13:12:02;;;;;;;2.35;0.40;;;;;;;3.36;100.00;99075.59;4986667;28;20046;-75
2022/02/06 13:29:57;;;;;;;1.30;0.50;;;;;;;3.30;100.00;99031.13;4969955;28;20034;-76
2022/02/06 13:32:33;;;;;;;1.67;0.50;;;;;;;3.22;100.00;99027.59;4950667;28;20050;-74
2022/02/06 13:38:00;;;;;;;0.95;0.50;;;;;;;3.18;100.00;99028.84;4983718;28;20038;-74
2022/02/06 13:40:32;;;;;;;0.50;0.30;;;;;;;3.21;100.00;99019.03;4959795;28;20082;-76
2022/02/06 13:43:15;;;;;;;0.60;0.45;;;;;;;3.20;100.00;99019.16;4951616;28;20054;-76
2022/02/06 13:45:42;;;;;;;0.52;0.30;;;;;;;3.16;100.00;99020.41;4961076;28;20031;-75
2022/02/06 13:48:13;;;;;;;0.50;0.25;;;;;;;3.05;100.00;99019.63;4983538;28;20039;-74
2022/02/06 13:50:46;;;;;;;2.37;0.50;;;;;;;3.09;100.00;99015.00;4978885;28;20063;-75
2022/02/06 13:53:17;;;;;;;;;;;;;;;2.98;100.00;99026.31;4951270;28;20050;-78
2022/02/06 13:56:01;;;;;;;1.73;0.52;;;;;;;3.00;100.00;99016.63;4963477;28;19930;-74
2022/02/06 13:58:29;;;;;;;1.98;0.40;;;;;;;3.01;100.00;99010.47;4960113;28;20065;-74
2022/02/06 14:01:02;;;;;;;0.57;0.50;;;;;;;3.00;100.00;99023.59;4950702;28;20031;-75
2022/02/06 14:03:44;;;;;;;0.55;0.40;;;;;;;2.96;100.00;99017.88;4966632;28;20061;-74
2022/02/06 14:06:13;;;;;;;2.05;0.30;;;;;;;2.86;100.00;99017.06;4957508;28;20431;-77